Terminal Aerodrome Forecast
Issued by NWS

Home | Current Version | Previous Version | Text Only | Print | Product List | Glossary On
Versions: 1 2 3 4 5 6 7 8 9 10 11 12 13 14 15 16 17 18 19 20 21 22 23 24 25 26 27 28
000
FTUS43 KLOT 290041 AAA
TAFORD
TAF AMD
KORD 290041Z 2901/3006 03010KT P6SM FEW010 SCT015 BKN130
      TEMPO 2901/2903 BKN010
     FM290900 VRB03KT 5SM BR BKN015 OVC080
     FM291500 07008KT P6SM VCSH BKN025 OVC050
     FM292100 04010KT P6SM SCT040 BKN120
     FM300200 02006KT P6SM FEW040 BKN150=

USA.gov is the U.S. government's official web portal to all federal, state and local government web resources and services.